Time;durP1;ratioP1;P1;durP2;ratioP2;P2;SDS_P1;SDS_P2;PMS_P1;PMS_P2;Temp;Humidity;BMP_temperature;BMP_pressure;BME280_temperature;BME280_humidity;BME280_pressure;Samples;Min_cycle;Max_cycle;Signal;HPM_P1;HPM_P2
2023/11/27 00:02:10;;;;;;;16.00;8.60;;;;;;;6.97;48.22;97318.38;108045;1254;68994;-66
2023/11/27 00:04:38;;;;;;;16.00;9.00;;;;;;;6.93;48.97;97313.23;108042;1254;72960;-66
2023/11/27 00:07:06;;;;;;;14.90;8.40;;;;;;;7.07;48.73;97310.92;108020;1254;61887;-66
2023/11/27 00:09:33;;;;;;;14.20;8.00;;;;;;;7.03;48.68;97313.82;108086;1254;60303;-66
2023/11/27 00:12:02;;;;;;;14.10;8.40;;;;;;;7.00;48.70;97310.67;108078;1254;73890;-66
2023/11/27 00:14:29;;;;;;;16.10;9.00;;;;;;;6.88;48.91;97309.58;108014;1254;70088;-66
2023/11/27 00:16:57;;;;;;;15.00;9.30;;;;;;;6.77;49.06;97306.79;108042;1254;72682;-65
2023/11/27 00:19:25;;;;;;;18.20;9.40;;;;;;;6.84;48.88;97311.25;108017;1254;60294;-66
2023/11/27 00:21:52;;;;;;;18.30;9.20;;;;;;;6.74;50.35;97309.09;108093;1254;60390;-65
2023/11/27 00:24:20;;;;;;;14.70;8.30;;;;;;;6.78;50.52;97303.62;108147;1254;73938;-66
2023/11/27 00:26:48;;;;;;;16.40;9.00;;;;;;;6.77;50.42;97311.19;108166;1254;69994;-65
2023/11/27 00:29:15;;;;;;;15.30;9.10;;;;;;;6.49;50.25;97303.42;108240;1253;72722;-66
2023/11/27 00:31:43;;;;;;;17.10;9.10;;;;;;;6.49;50.36;97301.88;107996;1257;60365;-66
2023/11/27 00:34:11;;;;;;;20.20;9.70;;;;;;;6.47;53.22;97304.46;108032;1253;59574;-66
2023/11/27 00:36:39;;;;;;;14.70;8.60;;;;;;;6.44;52.65;97304.26;108159;1254;74045;-66
2023/11/27 00:39:08;;;;;;;18.70;10.20;;;;;;;6.48;52.18;97307.14;108183;1254;69182;-66
2023/11/27 00:41:36;;;;;;;17.30;9.50;;;;;;;6.55;51.60;97303.73;107985;1252;71450;-66
2023/11/27 00:44:04;;;;;;;14.70;8.70;;;;;;;6.41;51.44;97308.61;108223;1255;60738;-66
2023/11/27 00:46:31;;;;;;;20.20;8.90;;;;;;;6.31;52.75;97304.75;108130;1252;60318;-66
2023/11/27 00:48:59;;;;;;;15.10;7.10;;;;;;;6.44;52.80;97300.64;108019;1253;73852;-66
2023/11/27 00:51:26;;;;;;;16.30;9.70;;;;;;;6.51;51.91;97297.55;108132;1254;70570;-66
2023/11/27 00:53:54;;;;;;;15.70;8.90;;;;;;;6.61;51.80;97298.13;108179;1253;72408;-66
2023/11/27 00:56:21;;;;;;;19.00;9.50;;;;;;;6.73;50.90;97301.83;108046;1254;62509;-66
2023/11/27 00:58:48;;;;;;;16.30;9.00;;;;;;;6.66;50.59;97297.79;108039;1253;60348;-66
2023/11/27 01:01:16;;;;;;;16.70;8.70;;;;;;;6.79;50.18;97294.25;108050;1253;72661;-65
2023/11/27 01:03:43;;;;;;;14.70;8.60;;;;;;;6.81;49.90;97291.55;107908;1254;68897;-66
2023/11/27 01:06:13;;;;;;;16.10;9.20;;;;;;;6.66;50.02;97297.92;107989;1257;71395;-66
2023/11/27 01:08:41;;;;;;;19.20;9.70;;;;;;;6.49;49.96;97295.44;108013;1253;61637;-65
2023/11/27 01:11:09;;;;;;;17.10;9.50;;;;;;;6.52;49.88;97294.15;107913;1253;61207;-67
2023/11/27 01:13:36;;;;;;;15.40;8.60;;;;;;;6.38;49.93;97289.98;107997;1254;73870;-66
2023/11/27 01:16:04;;;;;;;15.70;9.10;;;;;;;6.37;49.99;97293.09;108083;1259;69747;-66
2023/11/27 01:18:32;;;;;;;14.00;8.40;;;;;;;6.32;50.07;97300.38;108106;1254;71426;-66
2023/11/27 01:21:00;;;;;;;16.90;9.50;;;;;;;6.43;49.74;97298.39;108027;1254;62241;-67
2023/11/27 01:23:27;;;;;;;16.10;9.00;;;;;;;6.43;49.93;97297.04;107788;1260;60459;-66
2023/11/27 01:25:55;;;;;;;15.40;8.90;;;;;;;6.48;49.54;97301.25;108076;1253;73747;-66
2023/11/27 01:28:22;;;;;;;19.50;9.40;;;;;;;6.32;49.72;97295.49;108042;1253;70231;-66
2023/11/27 01:30:50;;;;;;;16.00;9.10;;;;;;;6.14;49.81;97290.20;107983;1254;71699;-66
2023/11/27 01:33:18;;;;;;;16.60;8.30;;;;;;;6.15;49.77;97290.98;107926;1258;61708;-67
2023/11/27 01:35:45;;;;;;;17.90;9.00;;;;;;;6.23;49.60;97294.14;107882;1254;60297;-67
2023/11/27 01:38:13;;;;;;;14.60;9.00;;;;;;;6.27;49.47;97290.41;107964;1254;72995;-67
2023/11/27 01:40:40;;;;;;;17.20;9.10;;;;;;;6.31;49.42;97294.01;108013;1254;69744;-67
2023/11/27 01:43:14;;;;;;;19.10;9.00;;;;;;;6.16;50.22;97284.12;107943;1257;72674;-66
2023/11/27 01:45:42;;;;;;;16.20;9.20;;;;;;;6.17;50.40;97286.35;108030;1254;60645;-67
2023/11/27 01:48:10;;;;;;;16.80;9.00;;;;;;;6.19;50.20;97280.49;108032;1254;61138;-66
2023/11/27 01:50:37;;;;;;;16.50;9.40;;;;;;;6.20;49.98;97292.63;107866;1254;73777;-67
2023/11/27 01:53:05;;;;;;;18.40;9.30;;;;;;;6.15;50.10;97292.21;107956;1254;69371;-66
2023/11/27 01:55:33;;;;;;;16.30;8.90;;;;;;;6.18;50.09;97294.81;108002;1254;72656;-66
2023/11/27 01:58:01;;;;;;;18.20;8.90;;;;;;;6.32;49.79;97297.95;107795;1262;60464;-66
2023/11/27 02:00:28;;;;;;;17.20;8.80;;;;;;;6.30;49.46;97298.56;107892;1254;60307;-66
2023/11/27 02:02:56;;;;;;;18.20;10.10;;;;;;;6.23;49.69;97293.98;108017;1254;71677;-67
2023/11/27 02:05:24;;;;;;;15.80;8.90;;;;;;;6.36;49.13;97290.85;107829;1254;68147;-66
2023/11/27 02:07:51;;;;;;;15.30;8.90;;;;;;;6.31;49.37;97286.65;107937;1254;71398;-66
2023/11/27 02:10:19;;;;;;;14.60;8.30;;;;;;;6.34;48.89;97297.58;107973;1259;62180;-66
2023/11/27 02:12:47;;;;;;;19.00;9.00;;;;;;;6.23;49.03;97296.55;107909;1254;60133;-66
2023/11/27 02:15:14;;;;;;;18.00;7.50;;;;;;;6.19;49.10;97291.26;107958;1254;73822;-67
2023/11/27 02:17:42;;;;;;;18.30;9.20;;;;;;;6.04;49.27;97285.60;107847;1254;70272;-67
2023/11/27 02:20:10;;;;;;;14.50;8.80;;;;;;;6.15;49.03;97289.23;107821;1257;71354;-66
2023/11/27 02:22:38;;;;;;;18.50;9.20;;;;;;;6.27;48.76;97300.31;107864;1254;61061;-66
2023/11/27 02:25:06;;;;;;;14.20;8.70;;;;;;;6.34;48.60;97294.84;107895;1254;60309;-67
2023/11/27 02:27:34;;;;;;;16.60;9.00;;;;;;;6.29;48.91;97299.66;108034;1254;73852;-67
2023/11/27 02:30:02;;;;;;;17.70;8.70;;;;;;;6.19;49.31;97299.98;107945;1254;70115;-67
2023/11/27 02:32:29;;;;;;;14.80;8.60;;;;;;;6.21;49.05;97303.84;107915;1257;72850;-66
2023/11/27 02:34:57;;;;;;;17.40;9.50;;;;;;;6.34;48.70;97310.34;107946;1257;60563;-67
2023/11/27 02:37:24;;;;;;;15.60;9.00;;;;;;;6.18;48.84;97308.91;107973;1254;60432;-67
2023/11/27 02:39:52;;;;;;;16.40;9.20;;;;;;;6.23;48.95;97312.27;107972;1253;72783;-66
2023/11/27 02:42:19;;;;;;;17.00;9.00;;;;;;;6.22;48.60;97305.69;108048;1254;70100;-66
2023/11/27 02:44:47;;;;;;;15.30;9.00;;;;;;;6.29;48.81;97310.66;107771;1254;71485;-66
2023/11/27 02:47:14;;;;;;;15.00;8.30;;;;;;;6.29;48.65;97313.44;108021;1254;60509;-67
2023/11/27 02:49:42;;;;;;;16.00;8.80;;;;;;;6.43;48.18;97311.34;108027;1253;60441;-68
2023/11/27 02:52:10;;;;;;;15.80;8.80;;;;;;;6.29;48.83;97318.15;108045;1257;74385;-66
2023/11/27 02:54:38;;;;;;;15.00;9.80;;;;;;;6.34;48.97;97319.21;107990;1254;69988;-66
2023/11/27 02:57:08;;;;;;;16.80;9.20;;;;;;;6.24;49.07;97324.41;108002;1256;71505;-66
2023/11/27 02:59:35;;;;;;;20.60;9.70;;;;;;;6.19;49.12;97328.23;108063;1254;60440;-66
2023/11/27 03:02:02;;;;;;;17.00;9.10;;;;;;;6.24;49.35;97330.47;107952;1254;60052;-66
2023/11/27 03:04:30;;;;;;;17.40;9.20;;;;;;;6.18;49.19;97328.31;107969;1259;72647;-66
2023/11/27 03:06:58;;;;;;;16.30;9.70;;;;;;;6.12;49.17;97338.95;108080;1255;69242;-67
2023/11/27 03:09:26;;;;;;;17.40;9.00;;;;;;;6.23;48.87;97335.27;108173;1254;72515;-66
2023/11/27 03:11:53;;;;;;;20.90;9.70;;;;;;;6.18;48.92;97338.73;108015;1254;61849;-67
2023/11/27 03:14:21;;;;;;;17.10;9.60;;;;;;;6.13;48.84;97339.75;108010;1253;60949;-66
2023/11/27 03:16:48;;;;;;;14.20;8.50;;;;;;;6.18;48.62;97337.34;108008;1254;72967;-66
2023/11/27 03:19:16;;;;;;;18.00;9.40;;;;;;;6.18;48.62;97343.26;108095;1254;70029;-66
2023/11/27 03:21:44;;;;;;;16.70;9.40;;;;;;;6.34;48.18;97343.77;108115;1254;71997;-66
2023/11/27 03:24:12;;;;;;;15.20;8.10;;;;;;;6.33;48.24;97348.20;108165;1260;60841;-66
2023/11/27 03:26:40;;;;;;;16.20;9.30;;;;;;;6.17;48.54;97347.14;108124;1254;60513;-66
2023/11/27 03:29:07;;;;;;;15.10;8.60;;;;;;;6.14;48.99;97345.79;108192;1254;73778;-66
2023/11/27 03:31:34;;;;;;;17.60;9.50;;;;;;;6.21;48.74;97351.56;108118;1254;69213;-66
2023/11/27 03:34:02;;;;;;;17.30;8.50;;;;;;;6.16;48.79;97358.57;107958;1253;71421;-66
2023/11/27 03:36:30;;;;;;;15.20;8.50;;;;;;;6.17;48.74;97362.64;108087;1254;61706;-66
2023/11/27 03:38:58;;;;;;;14.60;9.30;;;;;;;6.25;48.56;97365.47;108117;1254;60301;-67
2023/11/27 03:41:25;;;;;;;18.30;10.20;;;;;;;6.27;48.46;97369.68;108037;1254;73930;-66
2023/11/27 03:43:53;;;;;;;14.90;6.90;;;;;;;6.30;48.71;97357.09;108093;1253;70290;-69
2023/11/27 03:46:20;;;;;;;19.80;9.90;;;;;;;5.97;49.74;97366.65;108089;1254;72628;-66
2023/11/27 03:48:48;;;;;;;23.00;10.10;;;;;;;6.12;49.67;97364.53;108073;1252;60423;-66
2023/11/27 03:51:16;;;;;;;16.70;8.20;;;;;;;6.21;49.69;97370.22;108142;1254;59241;-66
2023/11/27 03:53:43;;;;;;;14.90;8.80;;;;;;;6.39;49.64;97374.29;108217;1253;72886;-66
2023/11/27 03:56:11;;;;;;;15.30;8.50;;;;;;;6.36;49.47;97375.34;108134;1253;70063;-66
2023/11/27 03:58:39;;;;;;;16.80;9.20;;;;;;;6.27;49.63;97385.35;107954;1252;72490;-66
2023/11/27 04:01:06;;;;;;;16.90;9.40;;;;;;;6.03;49.57;97382.64;107991;1254;61675;-66
2023/11/27 04:03:36;;;;;;;14.90;8.80;;;;;;;6.00;49.85;97382.82;108150;1254;60599;-66
2023/11/27 04:06:04;;;;;;;16.90;8.90;;;;;;;6.23;49.26;97377.56;108082;1254;73860;-64
2023/11/27 04:08:32;;;;;;;17.80;9.50;;;;;;;6.23;49.18;97373.92;107923;1253;70131;-66
2023/11/27 04:10:59;;;;;;;21.60;10.40;;;;;;;6.05;49.27;97382.55;108097;1254;72433;-67
2023/11/27 04:13:26;;;;;;;16.00;8.40;;;;;;;6.09;49.08;97388.22;108033;1257;60389;-66
2023/11/27 04:15:54;;;;;;;17.00;9.20;;;;;;;6.19;49.06;97385.52;108028;1256;60431;-67
2023/11/27 04:18:21;;;;;;;16.20;8.70;;;;;;;6.24;49.12;97383.81;108033;1259;73912;-67
2023/11/27 04:20:49;;;;;;;15.30;8.80;;;;;;;6.23;49.20;97389.30;107630;1254;70075;-67
2023/11/27 04:23:17;;;;;;;17.00;9.10;;;;;;;6.21;49.21;97391.15;107787;1260;72680;-66
2023/11/27 04:25:45;;;;;;;15.10;8.60;;;;;;;6.25;48.91;97395.05;107986;1259;60530;-66
2023/11/27 04:28:12;;;;;;;14.90;8.50;;;;;;;6.15;49.17;97397.27;107988;1254;60902;-66
2023/11/27 04:30:40;;;;;;;18.30;8.80;;;;;;;6.23;49.13;97404.05;108082;1254;74112;-66
2023/11/27 04:33:08;;;;;;;15.40;9.20;;;;;;;6.18;49.05;97405.97;108073;1253;70144;-67
2023/11/27 04:35:35;;;;;;;17.80;9.00;;;;;;;6.15;48.83;97404.05;107909;1254;71669;-66
2023/11/27 04:38:03;;;;;;;16.00;8.40;;;;;;;6.20;48.72;97409.52;108047;1253;61903;-66
2023/11/27 04:40:31;;;;;;;15.10;9.10;;;;;;;6.23;48.45;97396.05;108057;1254;60123;-66
2023/11/27 04:42:58;;;;;;;16.00;8.20;;;;;;;6.34;48.16;97411.05;108013;1254;72626;-66
2023/11/27 04:45:26;;;;;;;16.80;8.20;;;;;;;6.05;48.64;97406.40;108043;1254;70604;-66
2023/11/27 04:47:53;;;;;;;14.70;8.10;;;;;;;5.94;48.90;97411.41;108054;1253;72868;-66
2023/11/27 04:50:21;;;;;;;12.80;7.50;;;;;;;6.07;48.80;97416.59;108057;1254;60619;-66
2023/11/27 04:52:49;;;;;;;19.50;9.20;;;;;;;6.13;48.52;97411.30;108003;1254;59321;-66
2023/11/27 04:55:16;;;;;;;17.00;9.40;;;;;;;6.29;48.26;97413.09;108019;1254;73904;-66
2023/11/27 04:57:44;;;;;;;14.40;7.30;;;;;;;6.28;47.99;97413.33;108107;1254;69552;-66
2023/11/27 05:00:15;;;;;;;13.00;7.50;;;;;;;6.18;48.21;97409.81;108018;1253;72680;-66
2023/11/27 05:02:45;;;;;;;16.20;7.30;;;;;;;5.95;48.41;97417.14;108172;1252;61679;-66
2023/11/27 05:05:14;;;;;;;;;;;;;;;5.90;48.52;97417.59;108211;1254;60297;-66
2023/11/27 05:07:42;;;;;;;16.50;8.20;;;;;;;6.07;48.51;97417.08;108072;1252;72931;-66
2023/11/27 05:10:13;;;;;;;14.20;8.10;;;;;;;6.06;48.45;97424.44;108163;1254;70335;-66
2023/11/27 05:12:41;;;;;;;15.10;7.30;;;;;;;6.25;47.72;97428.65;108001;1253;72761;-66
2023/11/27 05:15:16;;;;;;;14.90;8.40;;;;;;;6.22;47.91;97430.59;108029;1254;61715;-67
2023/11/27 05:17:43;;;;;;;16.30;8.10;;;;;;;6.05;48.07;97433.77;108089;1254;60253;-66
2023/11/27 05:20:11;;;;;;;15.90;9.00;;;;;;;6.08;47.87;97433.42;108075;1254;73855;-66
2023/11/27 05:22:38;;;;;;;15.70;8.50;;;;;;;6.05;48.05;97429.73;108084;1254;70636;-66
2023/11/27 05:25:06;;;;;;;15.10;7.70;;;;;;;5.98;48.20;97446.04;108034;1254;72928;-67
2023/11/27 05:27:33;;;;;;;19.10;7.70;;;;;;;5.98;48.03;97446.02;108069;1254;61745;-66
2023/11/27 05:30:01;;;;;;;12.70;6.70;;;;;;;6.08;47.84;97446.29;108114;1253;60933;-66
2023/11/27 05:32:28;;;;;;;19.30;8.90;;;;;;;5.78;48.30;97449.81;108113;1253;73869;-67
2023/11/27 05:34:56;;;;;;;14.10;7.70;;;;;;;5.89;48.11;97450.04;108158;1252;68996;-66
2023/11/27 05:37:23;;;;;;;15.00;7.00;;;;;;;5.92;48.38;97441.16;108112;1254;72336;-66
2023/11/27 05:39:51;;;;;;;17.10;9.10;;;;;;;5.79;49.06;97447.49;108118;1253;60460;-66
2023/11/27 05:42:20;;;;;;;17.60;9.00;;;;;;;6.08;48.79;97454.51;108194;1253;59828;-66
2023/11/27 05:44:49;;;;;;;14.40;6.80;;;;;;;6.21;48.69;97463.08;108162;1253;72917;-67
2023/11/27 05:47:16;;;;;;;16.40;8.90;;;;;;;6.08;48.99;97465.46;108068;1254;68821;-66
2023/11/27 05:49:44;;;;;;;10.00;6.30;;;;;;;5.97;49.13;97472.02;108023;1254;71572;-66
2023/11/27 06:27:45;;;;;;;16.90;9.00;;;;;;;6.04;48.65;97516.01;104770;1294;601067;-67
2023/11/27 06:30:15;;;;;;;15.40;8.10;;;;;;;6.14;48.53;97526.23;107291;1267;59142;-67
2023/11/27 06:32:42;;;;;;;18.40;9.20;;;;;;;6.09;48.26;97530.88;107283;1265;60139;-67
2023/11/27 06:36:10;;;;;;;16.40;8.70;;;;;;;3.95;53.28;97540.88;104708;1292;600706;-67
2023/11/27 06:38:37;;;;;;;17.00;9.10;;;;;;;5.33;49.85;97542.58;107374;1266;60735;-67
2023/11/27 06:41:05;;;;;;;19.00;8.70;;;;;;;5.40;49.31;97544.86;107338;1270;60135;-71
2023/11/27 06:43:32;;;;;;;19.00;9.00;;;;;;;5.56;49.16;97546.17;107265;1267;70824;-67
2023/11/27 06:45:59;;;;;;;18.30;9.70;;;;;;;5.43;49.02;97552.84;108161;1257;70282;-67
2023/11/27 06:48:25;;;;;;;16.70;8.70;;;;;;;5.25;49.33;97554.20;108069;1251;143891;-67
2023/11/27 06:50:53;;;;;;;13.70;7.80;;;;;;;5.34;49.35;97554.38;108275;1252;61821;-66
2023/11/27 06:53:19;;;;;;;17.20;8.80;;;;;;;5.33;49.23;97548.16;108310;1252;60106;-66
2023/11/27 06:55:46;;;;;;;17.20;9.70;;;;;;;5.35;49.07;97547.38;108429;1253;59120;-66
2023/11/27 06:58:13;;;;;;;14.60;8.10;;;;;;;5.50;48.63;97548.23;108335;1251;67790;-66
2023/11/27 07:00:40;;;;;;;16.90;8.00;;;;;;;5.40;48.94;97542.73;108306;1255;73095;-66
2023/11/27 07:03:07;;;;;;;16.40;8.40;;;;;;;5.23;50.25;97553.23;108296;1253;61727;-66
2023/11/27 07:05:34;;;;;;;14.20;7.50;;;;;;;5.09;50.79;97559.42;108274;1252;60324;-66
2023/11/27 07:08:01;;;;;;;15.40;8.30;;;;;;;5.34;50.57;97560.66;108212;1253;73623;-67
2023/11/27 07:10:29;;;;;;;16.30;8.00;;;;;;;5.55;50.28;97568.86;108237;1253;70467;-66
2023/11/27 07:12:56;;;;;;;16.80;8.70;;;;;;;5.46;50.20;97566.92;108245;1252;72423;-66
2023/11/27 07:15:23;;;;;;;16.90;8.50;;;;;;;5.66;50.23;97569.27;108233;1252;60444;-66
2023/11/27 07:17:49;;;;;;;14.80;8.10;;;;;;;5.47;50.30;97576.27;108259;1253;59892;-66
2023/11/27 07:20:21;;;;;;;18.90;9.30;;;;;;;5.66;49.96;97587.39;108290;1252;72982;-66
2023/11/27 07:22:47;;;;;;;17.00;9.10;;;;;;;5.75;49.77;97586.48;108176;1253;70800;-66
2023/11/27 07:25:15;;;;;;;13.10;7.20;;;;;;;5.97;49.40;97588.36;108171;1253;73113;-66
2023/11/27 07:27:49;;;;;;;16.60;8.80;;;;;;;5.91;49.48;97593.08;108164;1253;61862;-66
2023/11/27 07:30:16;;;;;;;16.80;7.60;;;;;;;5.93;49.14;97597.52;108179;1253;60199;-66
2023/11/27 07:32:44;;;;;;;16.10;8.50;;;;;;;5.97;48.46;97603.90;108234;1253;72174;-66
2023/11/27 07:35:11;;;;;;;17.40;8.90;;;;;;;5.99;48.27;97605.66;108201;1257;68874;-66
2023/11/27 07:37:38;;;;;;;14.60;8.00;;;;;;;5.94;48.05;97604.08;108191;1253;73261;-66
2023/11/27 07:40:10;;;;;;;17.80;8.60;;;;;;;5.92;47.55;97607.98;108140;1253;60495;-66
2023/11/27 07:42:38;;;;;;;14.60;8.00;;;;;;;5.89;46.92;97619.64;108169;1253;60244;-66
2023/11/27 07:45:07;;;;;;;13.00;6.60;;;;;;;5.73;46.74;97624.75;108147;1253;72958;-66
2023/11/27 07:47:34;;;;;;;14.60;7.60;;;;;;;5.64;46.75;97622.47;108224;1253;70283;-66
2023/11/27 07:50:00;;;;;;;10.50;6.30;;;;;;;5.81;46.74;97629.85;108218;1253;73530;-66
2023/11/27 07:52:27;;;;;;;17.50;7.20;;;;;;;5.83;46.20;97633.23;108159;1257;62009;-66
2023/11/27 07:54:55;;;;;;;20.50;8.80;;;;;;;6.05;45.75;97631.28;108205;1253;59492;-66
2023/11/27 07:57:23;;;;;;;13.40;7.20;;;;;;;5.84;45.73;97636.15;108083;1253;72067;-66
2023/11/27 07:59:49;;;;;;;19.10;7.70;;;;;;;5.85;45.45;97636.56;108200;1253;70158;-66
2023/11/27 08:02:18;;;;;;;14.40;7.40;;;;;;;6.03;45.67;97641.30;108249;1253;72629;-67
2023/11/27 08:04:45;;;;;;;11.10;6.90;;;;;;;6.03;45.44;97637.15;108215;1253;61666;-66
2023/11/27 08:07:12;;;;;;;15.40;7.30;;;;;;;5.82;46.02;97646.02;108349;1253;59389;-66
2023/11/27 08:09:38;;;;;;;13.20;7.60;;;;;;;5.91;45.79;97646.18;108161;1253;72372;-66
2023/11/27 08:12:12;;;;;;;14.70;7.50;;;;;;;5.83;45.37;97652.88;108200;1253;70927;-66
2023/11/27 08:14:40;;;;;;;15.20;7.40;;;;;;;5.94;45.33;97652.79;108129;1257;72362;-66
2023/11/27 08:17:08;;;;;;;8.10;4.90;;;;;;;6.11;45.14;97654.63;108109;1253;61710;-66
2023/11/27 08:19:36;;;;;;;13.70;6.70;;;;;;;5.88;45.38;97655.07;108187;1253;60740;-66
2023/11/27 08:22:04;;;;;;;13.30;6.50;;;;;;;6.02;45.17;97650.77;108191;1257;73877;-67
2023/11/27 08:24:35;;;;;;;11.70;6.60;;;;;;;6.10;44.92;97647.17;108207;1253;70963;-69
2023/11/27 08:27:02;;;;;;;11.60;7.00;;;;;;;5.97;45.34;97655.08;108180;1253;72520;-67
2023/11/27 08:29:30;;;;;;;16.20;7.50;;;;;;;6.17;44.56;97659.88;108218;1254;61991;-66
2023/11/27 08:32:01;;;;;;;16.30;7.60;;;;;;;6.28;44.61;97660.25;108254;1253;60064;-66
2023/11/27 08:34:30;;;;;;;19.80;7.80;;;;;;;6.18;44.87;97665.39;108169;1253;72316;-66
2023/11/27 08:36:59;;;;;;;14.70;7.10;;;;;;;6.10;44.99;97665.34;108171;1253;69649;-66
2023/11/27 08:39:26;;;;;;;14.00;7.80;;;;;;;6.06;44.92;97678.39;108135;1257;73911;-66
2023/11/27 08:41:53;;;;;;;12.30;6.40;;;;;;;6.16;44.88;97681.86;108098;1256;62007;-66
2023/11/27 08:44:20;;;;;;;13.80;7.70;;;;;;;6.24;44.74;97684.69;108235;1253;60433;-66
2023/11/27 08:46:47;;;;;;;11.80;7.00;;;;;;;6.20;44.63;97681.32;108190;1253;73721;-66
2023/11/27 08:49:14;;;;;;;11.80;6.50;;;;;;;6.32;44.46;97692.10;108207;1253;70461;-66
2023/11/27 08:51:45;;;;;;;14.70;7.50;;;;;;;6.25;44.82;97694.23;108116;1253;71722;-66
2023/11/27 08:54:11;;;;;;;13.30;7.80;;;;;;;6.16;44.63;97701.73;108089;1253;60557;-66
2023/11/27 08:56:41;;;;;;;16.10;8.00;;;;;;;5.99;44.80;97691.38;108165;1253;60282;-66
2023/11/27 08:59:08;;;;;;;12.60;6.70;;;;;;;6.18;44.72;97698.97;108197;1253;73134;-67
2023/11/27 09:01:36;;;;;;;15.30;7.30;;;;;;;5.87;45.61;97705.65;108128;1253;68956;-66
2023/11/27 09:04:03;;;;;;;11.80;6.90;;;;;;;6.25;44.98;97712.02;108241;1253;73914;-66
2023/11/27 09:06:30;;;;;;;7.30;4.20;;;;;;;6.33;44.76;97709.98;108245;1253;62061;-66
2023/11/27 09:08:59;;;;;;;13.50;7.10;;;;;;;6.14;44.48;97710.02;108120;1253;60084;-67
2023/11/27 09:11:26;;;;;;;13.00;6.40;;;;;;;6.35;44.36;97715.41;108153;1258;72996;-66
2023/11/27 09:13:54;;;;;;;10.20;6.20;;;;;;;6.35;43.87;97700.42;108200;1253;71382;-66
2023/11/27 09:16:22;;;;;;;16.30;7.30;;;;;;;6.30;43.29;97705.81;108143;1253;71303;-66
2023/11/27 09:18:48;;;;;;;15.20;6.50;;;;;;;6.28;42.99;97705.17;108073;1254;60628;-66
2023/11/27 09:21:15;;;;;;;13.30;6.80;;;;;;;6.26;43.46;97709.48;108200;1253;60776;-66
2023/11/27 09:23:42;;;;;;;11.70;6.90;;;;;;;6.47;43.71;97706.70;108190;1253;73439;-66
2023/11/27 09:26:09;;;;;;;10.40;6.20;;;;;;;6.16;43.59;97709.41;108178;1256;71696;-67
2023/11/27 09:28:36;;;;;;;12.40;6.20;;;;;;;6.00;43.16;97715.14;108257;1253;73726;-67
2023/11/27 09:31:03;;;;;;;16.90;7.00;;;;;;;6.00;43.16;97712.37;108134;1253;61990;-66
2023/11/27 09:33:31;;;;;;;11.90;5.80;;;;;;;5.91;42.63;97726.63;108130;1253;60219;-66
2023/11/27 09:35:58;;;;;;;14.00;7.30;;;;;;;6.07;42.48;97712.84;108173;1253;74212;-66
2023/11/27 09:38:26;;;;;;;10.60;5.30;;;;;;;6.25;41.91;97714.96;108214;1253;70255;-66
2023/11/27 09:40:53;;;;;;;11.10;6.20;;;;;;;6.28;41.07;97726.14;108143;1254;72542;-66
2023/11/27 09:43:20;;;;;;;11.40;5.90;;;;;;;6.38;41.08;97725.87;108068;1255;61978;-66
2023/11/27 09:45:47;;;;;;;8.20;5.00;;;;;;;6.48;40.62;97724.59;108075;1259;61310;-66
2023/11/27 09:48:14;;;;;;;14.70;6.20;;;;;;;6.31;40.35;97728.23;108139;1256;73389;-66
2023/11/27 09:50:42;;;;;;;15.10;5.80;;;;;;;6.07;41.09;97739.70;108191;1253;71381;-66
2023/11/27 09:53:09;;;;;;;9.70;4.90;;;;;;;6.28;40.49;97735.36;108225;1255;72744;-67
2023/11/27 09:55:39;;;;;;;12.50;5.60;;;;;;;6.24;40.70;97744.48;108149;1253;61997;-66
2023/11/27 09:58:08;;;;;;;10.50;5.80;;;;;;;6.33;40.53;97746.05;108229;1253;59526;-67
2023/11/27 10:00:35;;;;;;;13.30;4.70;;;;;;;6.20;40.32;97747.13;108067;1256;73391;-66
2023/11/27 10:03:02;;;;;;;9.70;5.70;;;;;;;6.15;40.49;97750.92;108147;1257;70277;-66
2023/11/27 10:05:30;;;;;;;8.60;5.50;;;;;;;6.45;40.05;97752.15;108263;1253;72703;-66
2023/11/27 10:07:57;;;;;;;10.00;5.70;;;;;;;6.63;39.70;97750.61;108117;1254;62012;-66
2023/11/27 10:10:26;;;;;;;13.60;5.70;;;;;;;6.55;39.75;97762.20;108254;1253;60453;-66
2023/11/27 10:13:12;;;;;;;11.50;5.80;;;;;;;6.66;39.29;97763.30;108046;1255;73702;-66
2023/11/27 10:15:53;;;;;;;11.40;5.60;;;;;;;6.66;39.37;97768.51;108126;1253;70731;-66
2023/11/27 10:18:20;;;;;;;12.30;5.90;;;;;;;6.59;39.45;97767.90;108006;1254;73147;-66
2023/11/27 10:20:50;;;;;;;10.90;5.10;;;;;;;6.73;39.23;97771.28;108106;1256;62062;-66
2023/11/27 10:23:18;;;;;;;10.30;5.20;;;;;;;6.84;39.24;97774.08;108173;1253;60381;-66
2023/11/27 10:25:45;;;;;;;9.00;5.20;;;;;;;6.91;38.54;97782.05;108084;1254;74347;-66
2023/11/27 10:28:12;;;;;;;13.00;5.20;;;;;;;6.73;38.27;97795.49;108131;1257;71901;-66
2023/11/27 10:30:41;;;;;;;11.60;5.30;;;;;;;6.83;38.37;97799.41;107958;1253;73814;-66
2023/11/27 10:33:09;;;;;;;11.70;4.80;;;;;;;6.78;38.47;97795.91;108155;1253;59611;-66
2023/11/27 10:35:37;;;;;;;9.20;5.30;;;;;;;6.95;38.49;97793.33;108253;1253;59482;-66
2023/11/27 10:38:04;;;;;;;12.00;5.20;;;;;;;7.14;38.01;97797.58;108116;1254;71627;-66
2023/11/27 10:40:33;;;;;;;11.80;5.10;;;;;;;6.98;38.09;97800.86;108114;1254;70178;-66
2023/11/27 10:43:00;;;;;;;12.60;4.90;;;;;;;6.84;38.14;97806.35;108257;1253;73273;-66
2023/11/27 10:45:28;;;;;;;8.20;4.80;;;;;;;6.56;38.69;97805.39;107932;1259;61177;-66
2023/11/27 10:47:56;;;;;;;7.40;4.60;;;;;;;6.52;38.77;97812.42;108128;1254;60426;-66
2023/11/27 10:50:23;;;;;;;13.40;5.10;;;;;;;6.53;38.74;97811.98;108084;1254;74340;-66
2023/11/27 10:52:50;;;;;;;8.60;5.10;;;;;;;6.69;38.58;97816.30;107991;1254;70158;-66
2023/11/27 10:55:18;;;;;;;10.60;5.80;;;;;;;7.01;38.64;97820.56;107899;1259;73873;-66
2023/11/27 10:57:46;;;;;;;10.00;4.90;;;;;;;7.10;38.39;97815.63;108215;1257;60861;-66
2023/11/27 11:00:18;;;;;;;12.00;5.90;;;;;;;7.06;38.14;97826.33;108168;1254;60522;-66
2023/11/27 11:02:49;;;;;;;9.80;5.30;;;;;;;7.08;38.14;97829.36;108093;1259;73858;-66
2023/11/27 11:05:18;;;;;;;;;;;;;;;7.08;38.06;97834.07;108357;1253;70590;-66
2023/11/27 11:07:47;;;;;;;8.20;4.90;;;;;;;7.12;37.70;97831.38;108226;1259;73952;-66
2023/11/27 11:10:15;;;;;;;9.40;5.30;;;;;;;7.24;37.77;97828.05;108089;1255;60426;-68
2023/11/27 11:12:43;;;;;;;9.40;5.80;;;;;;;7.28;37.65;97836.23;107919;1253;60422;-66
2023/11/27 11:15:13;;;;;;;9.20;5.50;;;;;;;7.11;37.19;97835.12;108115;1254;72732;-66
2023/11/27 11:17:59;;;;;;;9.40;5.30;;;;;;;6.78;37.44;97841.95;108068;1259;69027;-66
2023/11/27 11:20:30;;;;;;;13.50;4.90;;;;;;;7.19;37.14;97859.96;108112;1253;72672;-66
2023/11/27 11:23:09;;;;;;;13.60;4.90;;;;;;;7.30;37.14;97860.84;108166;1254;62213;-66
2023/11/27 11:25:45;;;;;;;12.10;5.00;;;;;;;7.29;36.82;97859.88;108189;1254;60333;-66
2023/11/27 11:28:12;;;;;;;10.00;5.60;;;;;;;7.58;36.49;97871.95;108124;1254;75150;-66
2023/11/27 11:30:39;;;;;;;11.50;5.10;;;;;;;7.67;36.60;97872.08;108146;1254;70190;-66
2023/11/27 11:33:07;;;;;;;10.00;5.40;;;;;;;7.60;36.42;97866.39;108080;1254;72719;-67
2023/11/27 11:35:36;;;;;;;10.50;6.00;;;;;;;7.78;36.04;97881.88;108127;1254;61101;-66
2023/11/27 11:38:16;;;;;;;10.20;4.70;;;;;;;7.87;36.05;97883.65;108163;1254;60202;-66
2023/11/27 11:40:47;;;;;;;10.70;5.20;;;;;;;7.79;36.31;97891.24;108202;1254;72324;-66
2023/11/27 11:43:15;;;;;;;7.40;4.80;;;;;;;8.07;36.29;97887.60;108072;1258;69310;-66
2023/11/27 11:45:43;;;;;;;11.20;5.20;;;;;;;7.90;36.20;97887.95;108214;1254;72977;-66
2023/11/27 11:48:14;;;;;;;12.00;5.30;;;;;;;7.71;36.28;97892.29;108133;1253;61224;-66
2023/11/27 11:50:41;;;;;;;10.40;5.50;;;;;;;7.58;36.00;97887.12;108137;1254;60230;-66
2023/11/27 11:53:14;;;;;;;11.90;5.60;;;;;;;7.64;35.91;97889.69;108117;1253;73289;-67
2023/11/27 11:55:41;;;;;;;8.60;5.60;;;;;;;7.90;35.92;97902.83;108133;1254;71197;-66
2023/11/27 11:58:08;;;;;;;10.20;5.40;;;;;;;8.15;35.90;97908.95;108226;1254;71533;-66
2023/11/27 12:00:42;;;;;;;12.90;5.90;;;;;;;8.15;35.79;97908.55;108135;1254;60428;-66
2023/11/27 12:03:20;;;;;;;14.10;5.60;;;;;;;8.23;35.75;97914.25;108153;1254;60429;-66
2023/11/27 12:05:54;;;;;;;7.70;4.40;;;;;;;8.03;35.73;97917.20;108243;1254;73962;-66
2023/11/27 12:08:26;;;;;;;10.40;5.50;;;;;;;7.71;35.60;97925.83;108166;1254;69485;-66